sensor_id;sensor_type;location;lat;lon;timestamp;P1;durP1;ratioP1;P2;durP2;ratioP2
24301;SDS011;12421;49.732;20.078;2023-11-19T00:04:26;29.70;;;18.90;;
24301;SDS011;12421;49.732;20.078;2023-11-19T00:14:30;26.90;;;17.10;;
24301;SDS011;12421;49.732;20.078;2023-11-19T00:24:33;23.40;;;15.90;;
24301;SDS011;12421;49.732;20.078;2023-11-19T00:34:37;27.30;;;17.50;;
24301;SDS011;12421;49.732;20.078;2023-11-19T00:44:41;24.90;;;16.60;;
24301;SDS011;12421;49.732;20.078;2023-11-19T00:54:53;28.50;;;19.10;;
24301;SDS011;12421;49.732;20.078;2023-11-19T01:04:57;28.60;;;18.30;;
24301;SDS011;12421;49.732;20.078;2023-11-19T01:15:00;29.80;;;18.90;;
24301;SDS011;12421;49.732;20.078;2023-11-19T01:25:04;29.30;;;18.80;;
24301;SDS011;12421;49.732;20.078;2023-11-19T01:35:08;32.50;;;19.10;;
24301;SDS011;12421;49.732;20.078;2023-11-19T01:45:17;27.70;;;18.40;;
24301;SDS011;12421;49.732;20.078;2023-11-19T01:55:30;25.90;;;17.00;;
24301;SDS011;12421;49.732;20.078;2023-11-19T02:05:34;31.20;;;21.60;;
24301;SDS011;12421;49.732;20.078;2023-11-19T02:15:38;24.30;;;16.80;;
24301;SDS011;12421;49.732;20.078;2023-11-19T02:25:41;27.00;;;17.40;;
24301;SDS011;12421;49.732;20.078;2023-11-19T02:35:46;22.80;;;16.90;;
24301;SDS011;12421;49.732;20.078;2023-11-19T02:45:49;25.90;;;15.50;;
24301;SDS011;12421;49.732;20.078;2023-11-19T02:55:53;22.70;;;14.70;;
24301;SDS011;12421;49.732;20.078;2023-11-19T03:06:07;27.30;;;17.50;;
24301;SDS011;12421;49.732;20.078;2023-11-19T03:16:12;25.80;;;17.00;;
24301;SDS011;12421;49.732;20.078;2023-11-19T03:26:15;26.10;;;17.80;;
24301;SDS011;12421;49.732;20.078;2023-11-19T03:36:19;26.60;;;18.00;;
24301;SDS011;12421;49.732;20.078;2023-11-19T03:46:22;32.60;;;18.80;;
24301;SDS011;12421;49.732;20.078;2023-11-19T03:56:25;20.60;;;11.00;;
24301;SDS011;12421;49.732;20.078;2023-11-19T04:06:30;12.60;;;8.90;;
24301;SDS011;12421;49.732;20.078;2023-11-19T04:16:33;14.50;;;9.70;;
24301;SDS011;12421;49.732;20.078;2023-11-19T04:26:39;13.00;;;8.10;;
24301;SDS011;12421;49.732;20.078;2023-11-19T04:36:46;11.80;;;8.40;;
24301;SDS011;12421;49.732;20.078;2023-11-19T04:46:49;9.70;;;7.00;;
24301;SDS011;12421;49.732;20.078;2023-11-19T04:56:53;9.60;;;7.30;;
24301;SDS011;12421;49.732;20.078;2023-11-19T05:06:56;9.90;;;7.40;;
24301;SDS011;12421;49.732;20.078;2023-11-19T05:17:00;10.00;;;7.30;;
24301;SDS011;12421;49.732;20.078;2023-11-19T05:27:03;12.40;;;7.90;;
24301;SDS011;12421;49.732;20.078;2023-11-19T05:37:07;9.70;;;7.00;;
24301;SDS011;12421;49.732;20.078;2023-11-19T05:47:13;11.40;;;8.20;;
24301;SDS011;12421;49.732;20.078;2023-11-19T05:57:16;10.80;;;7.40;;
24301;SDS011;12421;49.732;20.078;2023-11-19T06:07:23;12.10;;;8.60;;
24301;SDS011;12421;49.732;20.078;2023-11-19T06:17:26;14.50;;;8.90;;
24301;SDS011;12421;49.732;20.078;2023-11-19T06:27:30;18.50;;;10.90;;
24301;SDS011;12421;49.732;20.078;2023-11-19T06:37:33;13.40;;;9.10;;
24301;SDS011;12421;49.732;20.078;2023-11-19T06:47:37;13.90;;;9.50;;
24301;SDS011;12421;49.732;20.078;2023-11-19T06:57:40;18.20;;;12.50;;
24301;SDS011;12421;49.732;20.078;2023-11-19T07:07:43;13.10;;;9.30;;
24301;SDS011;12421;49.732;20.078;2023-11-19T07:17:48;13.40;;;10.10;;
24301;SDS011;12421;49.732;20.078;2023-11-19T07:28:04;13.20;;;8.50;;
24301;SDS011;12421;49.732;20.078;2023-11-19T07:38:08;15.40;;;10.60;;
24301;SDS011;12421;49.732;20.078;2023-11-19T07:48:11;15.90;;;10.60;;
24301;SDS011;12421;49.732;20.078;2023-11-19T07:58:16;15.60;;;10.70;;
24301;SDS011;12421;49.732;20.078;2023-11-19T08:08:19;13.60;;;9.10;;
24301;SDS011;12421;49.732;20.078;2023-11-19T08:18:23;13.40;;;9.10;;
24301;SDS011;12421;49.732;20.078;2023-11-19T08:28:27;22.10;;;14.90;;
24301;SDS011;12421;49.732;20.078;2023-11-19T08:38:30;18.40;;;12.10;;
24301;SDS011;12421;49.732;20.078;2023-11-19T08:48:34;17.10;;;12.10;;
24301;SDS011;12421;49.732;20.078;2023-11-19T08:58:37;19.40;;;12.80;;
24301;SDS011;12421;49.732;20.078;2023-11-19T09:08:41;17.90;;;12.10;;
24301;SDS011;12421;49.732;20.078;2023-11-19T09:18:45;17.40;;;11.90;;
24301;SDS011;12421;49.732;20.078;2023-11-19T09:28:50;16.40;;;10.80;;
24301;SDS011;12421;49.732;20.078;2023-11-19T09:38:54;15.70;;;11.20;;
24301;SDS011;12421;49.732;20.078;2023-11-19T09:48:57;20.40;;;14.40;;
24301;SDS011;12421;49.732;20.078;2023-11-19T09:59:02;19.80;;;13.20;;
24301;SDS011;12421;49.732;20.078;2023-11-19T10:09:06;28.20;;;16.50;;
24301;SDS011;12421;49.732;20.078;2023-11-19T10:19:09;17.10;;;11.00;;
24301;SDS011;12421;49.732;20.078;2023-11-19T10:29:21;11.20;;;7.40;;
24301;SDS011;12421;49.732;20.078;2023-11-19T10:39:33;12.10;;;8.10;;
24301;SDS011;12421;49.732;20.078;2023-11-19T10:50:00;8.40;;;4.60;;
24301;SDS011;12421;49.732;20.078;2023-11-19T11:00:04;6.40;;;4.00;;
24301;SDS011;12421;49.732;20.078;2023-11-19T11:10:16;6.20;;;4.10;;
24301;SDS011;12421;49.732;20.078;2023-11-19T11:20:19;8.30;;;5.20;;
24301;SDS011;12421;49.732;20.078;2023-11-19T11:51:18;7.20;;;4.80;;
24301;SDS011;12421;49.732;20.078;2023-11-19T12:01:56;9.40;;;5.70;;
24301;SDS011;12421;49.732;20.078;2023-11-19T12:12:11;8.40;;;5.40;;
24301;SDS011;12421;49.732;20.078;2023-11-19T12:22:20;8.90;;;5.90;;
24301;SDS011;12421;49.732;20.078;2023-11-19T12:32:24;7.40;;;4.80;;
24301;SDS011;12421;49.732;20.078;2023-11-19T12:42:36;6.90;;;5.20;;
24301;SDS011;12421;49.732;20.078;2023-11-19T12:52:43;11.50;;;7.20;;
24301;SDS011;12421;49.732;20.078;2023-11-19T13:13:04;7.30;;;5.00;;
24301;SDS011;12421;49.732;20.078;2023-11-19T13:23:09;7.10;;;4.10;;
24301;SDS011;12421;49.732;20.078;2023-11-19T13:33:14;7.80;;;4.90;;
24301;SDS011;12421;49.732;20.078;2023-11-19T13:43:18;11.00;;;5.70;;
24301;SDS011;12421;49.732;20.078;2023-11-19T13:53:21;5.60;;;3.40;;
24301;SDS011;12421;49.732;20.078;2023-11-19T14:03:26;6.70;;;4.00;;
24301;SDS011;12421;49.732;20.078;2023-11-19T14:13:30;8.60;;;3.80;;
24301;SDS011;12421;49.732;20.078;2023-11-19T14:23:34;4.00;;;3.00;;
24301;SDS011;12421;49.732;20.078;2023-11-19T14:33:37;4.80;;;3.40;;
24301;SDS011;12421;49.732;20.078;2023-11-19T14:43:41;26.80;;;10.50;;
24301;SDS011;12421;49.732;20.078;2023-11-19T14:53:44;16.20;;;7.10;;
24301;SDS011;12421;49.732;20.078;2023-11-19T15:03:48;10.70;;;5.90;;
24301;SDS011;12421;49.732;20.078;2023-11-19T15:13:54;12.30;;;7.70;;
24301;SDS011;12421;49.732;20.078;2023-11-19T15:23:57;25.90;;;10.90;;
24301;SDS011;12421;49.732;20.078;2023-11-19T15:34:02;19.70;;;9.70;;
24301;SDS011;12421;49.732;20.078;2023-11-19T15:44:06;11.20;;;6.60;;
24301;SDS011;12421;49.732;20.078;2023-11-19T15:54:09;26.80;;;16.30;;
24301;SDS011;12421;49.732;20.078;2023-11-19T16:04:12;13.70;;;7.80;;
24301;SDS011;12421;49.732;20.078;2023-11-19T16:14:16;10.40;;;6.20;;
24301;SDS011;12421;49.732;20.078;2023-11-19T16:24:19;21.90;;;11.50;;
24301;SDS011;12421;49.732;20.078;2023-11-19T16:34:25;9.20;;;5.80;;
24301;SDS011;12421;49.732;20.078;2023-11-19T16:44:29;12.40;;;7.10;;
24301;SDS011;12421;49.732;20.078;2023-11-19T16:54:32;13.30;;;6.90;;
24301;SDS011;12421;49.732;20.078;2023-11-19T17:04:36;9.50;;;6.30;;
24301;SDS011;12421;49.732;20.078;2023-11-19T17:14:40;14.40;;;7.80;;
24301;SDS011;12421;49.732;20.078;2023-11-19T17:24:43;12.80;;;8.30;;
24301;SDS011;12421;49.732;20.078;2023-11-19T17:34:46;18.10;;;10.00;;
24301;SDS011;12421;49.732;20.078;2023-11-19T17:44:50;13.70;;;8.40;;
24301;SDS011;12421;49.732;20.078;2023-11-19T17:54:55;12.80;;;8.20;;
24301;SDS011;12421;49.732;20.078;2023-11-19T18:04:58;14.20;;;8.80;;
24301;SDS011;12421;49.732;20.078;2023-11-19T18:15:08;20.10;;;12.10;;
24301;SDS011;12421;49.732;20.078;2023-11-19T18:25:18;24.00;;;14.10;;
24301;SDS011;12421;49.732;20.078;2023-11-19T18:35:22;25.60;;;14.40;;
24301;SDS011;12421;49.732;20.078;2023-11-19T18:45:28;35.40;;;19.50;;
24301;SDS011;12421;49.732;20.078;2023-11-19T18:55:31;37.30;;;19.70;;
24301;SDS011;12421;49.732;20.078;2023-11-19T19:05:34;32.20;;;18.90;;
24301;SDS011;12421;49.732;20.078;2023-11-19T19:15:38;59.10;;;31.30;;
24301;SDS011;12421;49.732;20.078;2023-11-19T19:25:41;46.10;;;24.90;;
24301;SDS011;12421;49.732;20.078;2023-11-19T19:35:45;35.90;;;21.90;;
24301;SDS011;12421;49.732;20.078;2023-11-19T19:45:48;39.00;;;23.10;;
24301;SDS011;12421;49.732;20.078;2023-11-19T19:55:52;51.30;;;30.70;;
24301;SDS011;12421;49.732;20.078;2023-11-19T20:05:58;31.00;;;17.80;;
24301;SDS011;12421;49.732;20.078;2023-11-19T20:16:02;34.90;;;18.80;;
24301;SDS011;12421;49.732;20.078;2023-11-19T20:26:05;43.00;;;22.90;;
24301;SDS011;12421;49.732;20.078;2023-11-19T20:36:09;26.80;;;14.20;;
24301;SDS011;12421;49.732;20.078;2023-11-19T20:46:12;21.20;;;12.80;;
24301;SDS011;12421;49.732;20.078;2023-11-19T20:56:15;34.30;;;19.20;;
24301;SDS011;12421;49.732;20.078;2023-11-19T21:06:19;66.20;;;34.30;;
24301;SDS011;12421;49.732;20.078;2023-11-19T21:16:23;107.80;;;53.80;;
24301;SDS011;12421;49.732;20.078;2023-11-19T21:26:27;139.10;;;67.50;;
24301;SDS011;12421;49.732;20.078;2023-11-19T21:36:32;36.20;;;18.60;;
24301;SDS011;12421;49.732;20.078;2023-11-19T21:46:36;34.00;;;17.90;;
24301;SDS011;12421;49.732;20.078;2023-11-19T21:56:39;36.70;;;20.20;;
24301;SDS011;12421;49.732;20.078;2023-11-19T22:06:43;30.40;;;17.80;;
24301;SDS011;12421;49.732;20.078;2023-11-19T22:16:46;89.30;;;43.90;;
24301;SDS011;12421;49.732;20.078;2023-11-19T22:26:50;40.00;;;20.00;;
24301;SDS011;12421;49.732;20.078;2023-11-19T22:36:53;42.90;;;23.90;;
24301;SDS011;12421;49.732;20.078;2023-11-19T22:46:57;39.10;;;21.60;;
24301;SDS011;12421;49.732;20.078;2023-11-19T22:57:02;33.70;;;19.40;;
24301;SDS011;12421;49.732;20.078;2023-11-19T23:07:06;35.10;;;20.70;;
24301;SDS011;12421;49.732;20.078;2023-11-19T23:17:09;29.70;;;17.20;;
24301;SDS011;12421;49.732;20.078;2023-11-19T23:27:19;25.20;;;16.50;;
24301;SDS011;12421;49.732;20.078;2023-11-19T23:37:23;28.10;;;15.90;;
24301;SDS011;12421;49.732;20.078;2023-11-19T23:47:28;22.60;;;12.60;;
24301;SDS011;12421;49.732;20.078;2023-11-19T23:57:31;24.50;;;12.80;;
